Time;durP1;ratioP1;P1;durP2;ratioP2;P2;SDS_P1;SDS_P2;PMS_P1;PMS_P2;Temp;Humidity;BMP_temperature;BMP_pressure;BME280_temperature;BME280_humidity;BME280_pressure;Samples;Min_cycle;Max_cycle;Signal;HPM_P1;HPM_P2
2023/09/21 00:00:23;;;;;;;2.35;1.20;;;;;;;;;;6230274;23;20052;-95
2023/09/21 00:02:50;;;;;;;2.45;1.23;;;;;;;;;;6229357;23;20054;-92
2023/09/21 00:05:24;;;;;;;2.13;1.35;;;;;;;;;;6224911;23;20024;-96
2023/09/21 00:07:51;;;;;;;2.75;1.08;;;;;;;;;;6256928;23;20381;-95
2023/09/21 00:10:18;;;;;;;1.92;1.02;;;;;;;;;;6226168;23;20043;-96
2023/09/21 00:12:44;;;;;;;1.85;1.13;;;;;;;;;;6250925;23;20020;-96
2023/09/21 00:15:21;;;;;;;2.00;1.20;;;;;;;;;;6255858;23;20020;-95
2023/09/21 00:17:51;;;;;;;1.63;1.15;;;;;;;;;;6251314;23;20016;-94
2023/09/21 00:20:23;;;;;;;1.85;1.40;;;;;;;;;;6224734;23;20023;-95
2023/09/21 00:22:51;;;;;;;1.10;1.00;;;;;;;;;;6251268;23;20012;-94
2023/09/21 00:25:17;;;;;;;2.33;1.00;;;;;;;;;;6254395;23;20018;-96
2023/09/21 00:27:44;;;;;;;3.58;1.30;;;;;;;;;;6255624;23;20032;-93
2023/09/21 00:30:10;;;;;;;2.33;1.10;;;;;;;;;;6229516;23;20016;-96
2023/09/21 00:32:40;;;;;;;2.28;1.20;;;;;;;;;;6226697;23;20016;-96
2023/09/21 00:35:10;;;;;;;1.88;1.10;;;;;;;;;;6220997;23;20008;-96
2023/09/21 00:37:39;;;;;;;2.15;1.20;;;;;;;;;;6252216;23;20415;-96
2023/09/21 00:40:20;;;;;;;3.55;1.13;;;;;;;;;;6255551;23;19996;-94
2023/09/21 00:42:46;;;;;;;1.77;1.30;;;;;;;;;;6257135;23;20012;-94
2023/09/21 00:45:14;;;;;;;3.05;1.33;;;;;;;;;;6256516;23;20016;-96
2023/09/21 00:47:44;;;;;;;1.85;1.00;;;;;;;;;;6257734;22;20036;-96
2023/09/21 00:50:11;;;;;;;2.20;1.15;;;;;;;;;;6250053;23;20054;-95
2023/09/21 00:52:42;;;;;;;1.98;1.10;;;;;;;;;;6254876;23;20012;-95
2023/09/21 00:55:11;;;;;;;1.88;1.17;;;;;;;;;;6254160;23;20007;-94
2023/09/21 00:57:37;;;;;;;1.95;0.82;;;;;;;;;;6253797;23;20093;-96
2023/09/21 01:00:10;;;;;;;1.88;1.00;;;;;;;;;;6251594;23;20019;-96
2023/09/21 01:02:37;;;;;;;1.77;1.00;;;;;;;;;;6247818;23;20023;-95
2023/09/21 01:05:05;;;;;;;6.40;1.95;;;;;;;;;;6221952;23;20107;-96
2023/09/21 01:07:31;;;;;;;1.75;1.10;;;;;;;;;;6250746;23;20012;-95
2023/09/21 01:09:58;;;;;;;1.25;0.93;;;;;;;;;;6255272;23;20004;-95
2023/09/21 01:12:27;;;;;;;1.75;1.05;;;;;;;;;;6231935;23;20047;-94
2023/09/21 01:15:10;;;;;;;1.67;1.10;;;;;;;;;;6230374;23;20007;-95
2023/09/21 16:39:43;;;;;;;1.10;0.55;;;;;;;;;;6147105;23;20025;-90
2023/09/21 16:42:12;;;;;;;0.80;0.57;;;;;;;;;;6153781;23;20089;-94
2023/09/21 16:44:39;;;;;;;0.82;0.50;;;;;;;;;;6154618;23;20021;-91
2023/09/21 16:47:05;;;;;;;0.77;0.40;;;;;;;;;;6148675;23;20360;-91
2023/09/21 16:49:31;;;;;;;1.55;0.50;;;;;;;;;;6149716;23;20351;-90
2023/09/21 16:51:58;;;;;;;5.45;0.60;;;;;;;;;;6131462;23;20025;-86
2023/09/21 16:54:24;;;;;;;0.60;0.40;;;;;;;;;;6158558;23;20435;-93
2023/09/21 16:56:50;;;;;;;1.80;0.45;;;;;;;;;;6152654;23;20015;-92
2023/09/21 16:59:17;;;;;;;0.63;0.43;;;;;;;;;;6152676;23;20040;-92
2023/09/21 17:01:43;;;;;;;0.70;0.45;;;;;;;;;;6129382;23;20017;-95
2023/09/21 17:04:10;;;;;;;0.50;0.30;;;;;;;;;;6151589;23;20013;-91
2023/09/21 17:06:36;;;;;;;0.82;0.50;;;;;;;;;;6150176;23;20343;-95
2023/09/21 17:09:02;;;;;;;0.90;0.60;;;;;;;;;;6131373;23;20076;-91
2023/09/21 17:11:29;;;;;;;0.57;0.45;;;;;;;;;;6153030;23;20021;-92
2023/09/21 17:13:55;;;;;;;0.95;0.60;;;;;;;;;;6157943;23;20014;-94
2023/09/21 17:16:21;;;;;;;1.48;0.50;;;;;;;;;;6128138;23;20095;-94
2023/09/21 17:18:47;;;;;;;1.08;0.50;;;;;;;;;;6128412;23;20020;-93
2023/09/21 17:21:16;;;;;;;1.23;0.60;;;;;;;;;;6122569;23;20076;-92
2023/09/21 17:23:45;;;;;;;0.50;0.50;;;;;;;;;;6122233;23;20018;-91
2023/09/21 17:26:11;;;;;;;0.68;0.52;;;;;;;;;;6122895;23;20017;-91
2023/09/21 17:28:37;;;;;;;1.25;0.50;;;;;;;;;;6120611;23;20041;-91
2023/09/21 17:31:05;;;;;;;0.80;0.63;;;;;;;;;;6147284;23;20025;-91
2023/09/21 17:33:31;;;;;;;0.57;0.50;;;;;;;;;;6150378;23;20021;-91
2023/09/21 17:35:57;;;;;;;1.42;0.70;;;;;;;;;;6149518;23;20377;-91
2023/09/21 17:38:24;;;;;;;1.40;0.88;;;;;;;;;;6123930;23;20051;-91
2023/09/21 17:40:50;;;;;;;0.60;0.60;;;;;;;;;;6151805;23;20020;-92
2023/09/21 17:43:16;;;;;;;1.27;0.57;;;;;;;;;;6123805;23;20053;-91
2023/09/21 17:45:42;;;;;;;1.15;0.50;;;;;;;;;;6125330;23;20013;-92
2023/09/21 17:48:09;;;;;;;1.27;0.47;;;;;;;;;;6101390;23;20020;-91
2023/09/21 17:50:36;;;;;;;1.95;0.60;;;;;;;;;;6125836;23;20137;-92
2023/09/21 17:53:08;;;;;;;0.77;0.60;;;;;;;;;;6150376;23;20359;-91
2023/09/21 17:55:34;;;;;;;0.90;0.60;;;;;;;;;;6126311;23;20021;-91
2023/09/21 17:58:01;;;;;;;0.80;0.70;;;;;;;;;;6148901;23;20361;-91
2023/09/21 18:00:27;;;;;;;1.35;0.70;;;;;;;;;;6149181;23;20068;-92
2023/09/21 18:02:53;;;;;;;1.38;0.68;;;;;;;;;;6124260;23;20019;-92
2023/09/21 18:05:19;;;;;;;1.50;0.68;;;;;;;;;;6127357;23;20355;-94
2023/09/21 18:07:45;;;;;;;0.70;0.60;;;;;;;;;;6101124;23;20017;-92
2023/09/21 18:10:11;;;;;;;1.17;0.82;;;;;;;;;;6123963;23;20021;-93
2023/09/21 18:12:39;;;;;;;1.58;1.00;;;;;;;;;;6124747;23;20013;-92
2023/09/21 18:15:09;;;;;;;0.88;0.80;;;;;;;;;;6100089;23;20447;-92
2023/09/21 18:17:35;;;;;;;1.17;0.90;;;;;;;;;;6151782;23;20041;-91
2023/09/21 18:20:03;;;;;;;1.45;0.93;;;;;;;;;;6149401;23;20399;-92
2023/09/21 18:22:30;;;;;;;2.20;1.05;;;;;;;;;;6123682;23;20325;-92
2023/09/21 18:24:57;;;;;;;1.02;0.77;;;;;;;;;;6120898;23;20451;-90
2023/09/21 18:27:23;;;;;;;1.92;1.02;;;;;;;;;;6150891;23;20045;-91
2023/09/21 18:29:49;;;;;;;1.05;0.60;;;;;;;;;;6153083;23;20013;-91
2023/09/21 18:32:15;;;;;;;0.70;0.52;;;;;;;;;;6126602;23;20355;-90
2023/09/21 18:34:41;;;;;;;0.80;0.35;;;;;;;;;;6124710;23;20017;-91
2023/09/21 18:37:07;;;;;;;0.60;0.40;;;;;;;;;;6153048;23;20045;-90
2023/09/21 18:39:34;;;;;;;0.95;0.30;;;;;;;;;;6126672;23;20025;-89
2023/09/21 18:42:01;;;;;;;0.32;0.28;;;;;;;;;;6153975;23;20383;-89
2023/09/21 18:44:27;;;;;;;0.20;0.17;;;;;;;;;;6155208;23;20036;-90
2023/09/21 18:46:54;;;;;;;0.40;0.38;;;;;;;;;;6151885;23;20083;-89
2023/09/21 18:49:20;;;;;;;0.60;0.38;;;;;;;;;;6153827;23;20552;-90
2023/09/21 18:51:46;;;;;;;0.93;0.50;;;;;;;;;;6152777;23;20351;-89
2023/09/21 18:54:12;;;;;;;1.10;0.60;;;;;;;;;;6151754;23;20013;-89
2023/09/21 18:56:38;;;;;;;1.02;0.47;;;;;;;;;;6152970;23;20024;-89
2023/09/21 18:59:04;;;;;;;1.25;0.32;;;;;;;;;;6152363;23;20018;-90
2023/09/21 19:01:30;;;;;;;0.95;0.40;;;;;;;;;;6152762;23;20096;-91
2023/09/21 19:03:56;;;;;;;0.47;0.40;;;;;;;;;;6125556;23;20044;-90
2023/09/21 19:06:23;;;;;;;0.85;0.40;;;;;;;;;;6152489;23;20336;-89
2023/09/21 19:08:49;;;;;;;0.73;0.60;;;;;;;;;;6150803;23;20088;-90
2023/09/21 19:11:15;;;;;;;0.57;0.38;;;;;;;;;;6152429;23;20021;-90
2023/09/21 19:13:42;;;;;;;0.70;0.45;;;;;;;;;;6127379;23;20013;-90
2023/09/21 19:16:11;;;;;;;0.80;0.50;;;;;;;;;;6153004;23;20017;-91
2023/09/21 19:18:38;;;;;;;0.52;0.30;;;;;;;;;;6153675;23;20017;-91
2023/09/21 19:21:04;;;;;;;0.68;0.50;;;;;;;;;;6152762;23;20084;-90
2023/09/21 19:23:30;;;;;;;0.32;0.32;;;;;;;;;;6151684;23;20023;-89
2023/09/21 19:25:56;;;;;;;0.47;0.40;;;;;;;;;;6150564;23;20017;-90
2023/09/21 19:28:23;;;;;;;0.40;0.30;;;;;;;;;;6149446;23;20084;-89
2023/09/21 19:30:50;;;;;;;0.40;0.30;;;;;;;;;;6152483;23;20084;-90
2023/09/21 19:33:17;;;;;;;0.22;0.22;;;;;;;;;;6151903;23;20024;-92
2023/09/21 19:35:44;;;;;;;0.30;0.20;;;;;;;;;;6125263;23;20018;-90
2023/09/21 19:38:10;;;;;;;0.40;0.30;;;;;;;;;;6125911;23;20025;-90
2023/09/21 19:40:42;;;;;;;1.23;0.40;;;;;;;;;;6125314;23;20025;-91
2023/09/21 19:43:08;;;;;;;0.40;0.30;;;;;;;;;;6150354;23;20017;-91
2023/09/21 19:45:34;;;;;;;0.60;0.57;;;;;;;;;;6152806;23;20013;-92
2023/09/21 19:48:00;;;;;;;2.63;0.98;;;;;;;;;;6151988;23;20013;-86
2023/09/21 19:50:27;;;;;;;0.38;0.32;;;;;;;;;;6150955;23;20021;-89
2023/09/21 19:52:53;;;;;;;0.30;0.30;;;;;;;;;;6124704;23;20009;-88
2023/09/21 19:55:19;;;;;;;0.63;0.20;;;;;;;;;;6151410;23;20016;-89
2023/09/21 19:57:45;;;;;;;0.32;0.30;;;;;;;;;;6151830;23;20021;-89
2023/09/21 20:00:11;;;;;;;0.60;0.40;;;;;;;;;;6123880;23;20044;-89
2023/09/21 20:02:37;;;;;;;0.98;0.40;;;;;;;;;;6125864;23;20024;-89
2023/09/21 20:05:06;;;;;;;1.13;0.40;;;;;;;;;;6124185;23;20088;-89
2023/09/21 20:07:32;;;;;;;0.57;0.35;;;;;;;;;;6150961;23;20009;-85
2023/09/21 20:09:58;;;;;;;1.80;0.50;;;;;;;;;;6123292;23;20021;-83
2023/09/21 20:12:25;;;;;;;0.80;0.55;;;;;;;;;;6124052;23;20021;-86
2023/09/21 20:14:51;;;;;;;1.23;0.70;;;;;;;;;;6151046;23;20100;-87
2023/09/21 20:17:17;;;;;;;1.23;0.70;;;;;;;;;;6150437;23;20749;-88
2023/09/21 20:19:43;;;;;;;0.77;0.60;;;;;;;;;;6124009;23;20028;-87
2023/09/21 20:22:10;;;;;;;1.15;0.60;;;;;;;;;;6123006;23;20021;-87
2023/09/21 20:24:36;;;;;;;0.80;0.60;;;;;;;;;;6124174;23;20099;-87
2023/09/21 20:27:02;;;;;;;1.20;0.60;;;;;;;;;;6123850;23;20017;-87
2023/09/21 20:29:28;;;;;;;0.63;0.40;;;;;;;;;;6149951;23;20013;-87
2023/09/21 20:31:55;;;;;;;0.73;0.40;;;;;;;;;;6150856;23;20021;-88
2023/09/21 20:34:21;;;;;;;0.65;0.30;;;;;;;;;;6122343;23;20344;-84
2023/09/21 20:36:48;;;;;;;0.30;0.30;;;;;;;;;;6150609;23;20014;-88
2023/09/21 20:39:14;;;;;;;1.17;0.50;;;;;;;;;;6124408;23;20017;-89
2023/09/21 20:41:41;;;;;;;0.52;0.40;;;;;;;;;;6126337;23;20081;-90
2023/09/21 20:44:08;;;;;;;0.40;0.30;;;;;;;;;;6126106;23;20017;-89
2023/09/21 20:46:35;;;;;;;0.88;0.30;;;;;;;;;;6127537;23;20045;-89
2023/09/21 20:49:01;;;;;;;0.38;0.38;;;;;;;;;;6154277;23;20010;-89
2023/09/21 20:51:27;;;;;;;0.45;0.40;;;;;;;;;;6154682;23;20021;-88
2023/09/21 20:53:53;;;;;;;0.30;0.30;;;;;;;;;;6129621;23;20022;-89
2023/09/21 20:56:19;;;;;;;0.80;0.30;;;;;;;;;;6155501;23;20017;-89
2023/09/21 20:58:46;;;;;;;1.70;0.50;;;;;;;;;;6125980;23;20100;-89
2023/09/21 21:01:12;;;;;;;2.10;0.50;;;;;;;;;;6124565;23;20017;-89
2023/09/21 21:03:38;;;;;;;0.52;0.43;;;;;;;;;;6125497;23;20017;-89
2023/09/21 21:06:04;;;;;;;0.95;0.50;;;;;;;;;;6124573;23;20064;-88
2023/09/21 21:08:30;;;;;;;1.38;0.47;;;;;;;;;;6126798;23;20014;-89
2023/09/21 21:10:56;;;;;;;0.70;0.45;;;;;;;;;;6126161;23;20021;-88
2023/09/21 21:13:22;;;;;;;1.20;0.60;;;;;;;;;;6125897;23;20022;-88
2023/09/21 21:15:48;;;;;;;0.73;0.55;;;;;;;;;;6126596;23;20060;-88
2023/09/21 21:18:15;;;;;;;0.80;0.60;;;;;;;;;;6126810;23;20993;-88
2023/09/21 21:20:42;;;;;;;1.15;0.60;;;;;;;;;;6126261;23;20020;-89
2023/09/21 21:23:11;;;;;;;0.77;0.52;;;;;;;;;;6125829;23;20018;-88
2023/09/21 21:25:37;;;;;;;0.80;0.55;;;;;;;;;;6126148;23;20017;-89
2023/09/21 21:28:03;;;;;;;1.75;0.52;;;;;;;;;;6151529;23;20313;-88
2023/09/21 21:30:29;;;;;;;1.60;0.60;;;;;;;;;;6151798;23;20014;-89
2023/09/21 21:32:55;;;;;;;0.80;0.68;;;;;;;;;;6152545;23;20033;-89
2023/09/21 21:35:21;;;;;;;0.63;0.50;;;;;;;;;;6152137;23;20021;-89
2023/09/21 21:37:47;;;;;;;0.90;0.52;;;;;;;;;;6126675;23;20049;-88
2023/09/21 21:40:15;;;;;;;0.68;0.60;;;;;;;;;;6124839;23;20042;-89
2023/09/21 21:42:41;;;;;;;0.98;0.60;;;;;;;;;;6127513;23;20025;-89
2023/09/21 21:45:08;;;;;;;0.75;0.60;;;;;;;;;;6152940;23;20380;-89
2023/09/21 21:47:34;;;;;;;1.58;0.75;;;;;;;;;;6127240;23;20451;-89
2023/09/21 21:50:00;;;;;;;1.58;0.60;;;;;;;;;;6126405;23;20017;-91
2023/09/21 21:52:26;;;;;;;0.73;0.57;;;;;;;;;;6127286;23;20309;-88
2023/09/21 21:54:52;;;;;;;0.80;0.60;;;;;;;;;;6125736;23;20030;-89
2023/09/21 21:57:19;;;;;;;2.00;0.65;;;;;;;;;;6126539;23;20097;-89
2023/09/21 21:59:45;;;;;;;1.67;0.75;;;;;;;;;;6153032;23;20096;-89
2023/09/21 22:02:11;;;;;;;0.60;0.40;;;;;;;;;;6126116;23;20112;-89
2023/09/21 22:04:39;;;;;;;1.27;0.77;;;;;;;;;;6151960;23;20463;-89
2023/09/21 22:07:05;;;;;;;1.00;0.70;;;;;;;;;;6152741;23;20017;-88
2023/09/21 22:09:31;;;;;;;1.15;0.80;;;;;;;;;;6153000;23;20308;-91
2023/09/21 22:11:58;;;;;;;1.58;0.80;;;;;;;;;;6152283;23;20087;-89
2023/09/21 22:14:25;;;;;;;2.65;0.70;;;;;;;;;;6126428;23;20029;-89
2023/09/21 22:16:51;;;;;;;1.38;0.88;;;;;;;;;;6126594;23;20306;-89
2023/09/21 22:19:17;;;;;;;1.00;0.90;;;;;;;;;;6126075;23;20017;-89
2023/09/21 22:21:44;;;;;;;1.10;0.70;;;;;;;;;;6126423;23;20017;-89
2023/09/21 22:24:10;;;;;;;1.20;1.10;;;;;;;;;;6151551;23;20014;-90
2023/09/21 22:26:36;;;;;;;1.50;0.88;;;;;;;;;;6153647;23;20017;-88
2023/09/21 22:29:03;;;;;;;2.15;1.08;;;;;;;;;;6126212;23;20025;-89
2023/09/21 22:31:30;;;;;;;1.27;0.95;;;;;;;;;;6160811;23;20021;-89
2023/09/21 22:33:56;;;;;;;1.77;1.13;;;;;;;;;;6130973;23;20032;-90
2023/09/21 22:36:22;;;;;;;2.10;1.88;;;;;;;;;;6156748;23;20048;-89
2023/09/21 22:38:49;;;;;;;1.70;1.52;;;;;;;;;;6129556;23;20036;-88
2023/09/21 22:41:16;;;;;;;1.63;1.50;;;;;;;;;;6132540;23;20041;-88
2023/09/21 22:43:42;;;;;;;1.88;1.30;;;;;;;;;;6152472;23;20020;-89
2023/09/21 22:46:08;;;;;;;1.88;1.58;;;;;;;;;;6151390;23;20335;-89
2023/09/21 22:48:34;;;;;;;2.58;1.90;;;;;;;;;;6150094;23;20018;-88
2023/09/21 22:51:00;;;;;;;2.85;2.00;;;;;;;;;;6152639;23;20017;-88
2023/09/21 22:53:29;;;;;;;2.53;1.50;;;;;;;;;;6152536;23;20072;-88
2023/09/21 22:55:59;;;;;;;3.08;2.03;;;;;;;;;;6151642;23;20017;-89
2023/09/21 22:58:26;;;;;;;2.63;2.20;;;;;;;;;;6124924;23;20025;-88
2023/09/21 23:00:55;;;;;;;2.88;2.25;;;;;;;;;;6151702;23;20024;-89
2023/09/21 23:03:21;;;;;;;3.50;3.05;;;;;;;;;;6124448;23;20439;-89
2023/09/21 23:05:51;;;;;;;4.05;2.85;;;;;;;;;;6125588;23;20017;-88
2023/09/21 23:08:19;;;;;;;4.10;2.80;;;;;;;;;;6125140;23;20083;-89
2023/09/21 23:10:45;;;;;;;6.50;3.70;;;;;;;;;;6126495;23;20017;-89
2023/09/21 23:13:11;;;;;;;5.03;3.33;;;;;;;;;;6151139;23;20020;-89
2023/09/21 23:15:38;;;;;;;6.60;4.25;;;;;;;;;;6125000;23;20017;-88
2023/09/21 23:18:04;;;;;;;6.60;3.75;;;;;;;;;;6151101;23;20119;-89
2023/09/21 23:20:30;;;;;;;6.75;4.25;;;;;;;;;;6151815;23;20009;-88
2023/09/21 23:22:57;;;;;;;7.50;3.95;;;;;;;;;;6151582;23;20013;-89
2023/09/21 23:25:23;;;;;;;6.97;4.32;;;;;;;;;;6125558;23;20021;-89
2023/09/21 23:27:51;;;;;;;6.90;5.07;;;;;;;;;;6124730;23;20021;-89
2023/09/21 23:30:17;;;;;;;7.20;4.82;;;;;;;;;;6124951;23;20021;-89
2023/09/21 23:32:43;;;;;;;7.80;4.50;;;;;;;;;;6151498;23;20014;-89
2023/09/21 23:35:09;;;;;;;7.68;4.47;;;;;;;;;;6124653;23;20347;-88
2023/09/21 23:37:37;;;;;;;7.65;5.25;;;;;;;;;;6155777;23;20028;-88
2023/09/21 23:40:07;;;;;;;7.35;4.85;;;;;;;;;;6180779;23;20024;-88
2023/09/21 23:42:36;;;;;;;6.85;4.60;;;;;;;;;;6181815;23;20016;-88
2023/09/21 23:45:02;;;;;;;8.52;5.82;;;;;;;;;;6153301;23;20212;-88
2023/09/21 23:47:29;;;;;;;8.85;5.68;;;;;;;;;;6154492;23;20443;-88
2023/09/21 23:49:55;;;;;;;9.20;5.30;;;;;;;;;;6153853;23;20465;-88
2023/09/21 23:52:21;;;;;;;8.85;5.20;;;;;;;;;;6181186;23;20021;-88
2023/09/21 23:54:47;;;;;;;9.10;5.15;;;;;;;;;;6181177;23;20027;-88
2023/09/21 23:57:13;;;;;;;7.53;5.18;;;;;;;;;;6180018;23;20028;-88
2023/09/21 23:59:39;;;;;;;9.05;5.57;;;;;;;;;;6180644;23;20016;-88
